Time;durP1;ratioP1;P1;durP2;ratioP2;P2;SDS_P1;SDS_P2;PMS_P1;PMS_P2;Temp;Humidity;BMP_temperature;BMP_pressure;BME280_temperature;BME280_humidity;BME280_pressure;Samples;Min_cycle;Max_cycle;Signal;HPM_P1;HPM_P2
2022/10/12 00:01:25;;;;;;;19.45;7.88;;;;;;;1.63;62.88;100191.84;4988074;28;20121;-79
2022/10/12 00:03:51;;;;;;;22.95;9.07;;;;;;;1.91;62.97;100245.78;4987780;28;20042;-80
2022/10/12 00:06:21;;;;;;;22.38;8.27;;;;;;;1.94;62.82;100248.47;4987871;28;20042;-79
2022/10/12 00:08:49;;;;;;;19.75;9.05;;;;;;;1.86;63.06;100243.09;4999235;28;20042;-78
2022/10/12 00:11:27;;;;;;;21.05;9.27;;;;;;;1.81;62.70;100242.03;4988365;28;20531;-81
2022/10/12 00:13:54;;;;;;;20.08;8.45;;;;;;;1.83;63.15;100244.69;4987198;28;20212;-79
2022/10/12 00:16:22;;;;;;;25.55;9.00;;;;;;;1.85;62.97;100243.03;4986328;28;20038;-80
2022/10/12 00:18:53;;;;;;;22.13;8.90;;;;;;;1.90;62.84;100241.47;4969477;28;20038;-79
2022/10/12 00:21:19;;;;;;;21.23;9.05;;;;;;;1.73;63.32;100208.44;4972010;28;20042;-79
2022/10/12 00:23:46;;;;;;;28.55;9.13;;;;;;;1.97;62.88;100246.00;4986464;28;20136;-80
2022/10/12 00:26:16;;;;;;;20.15;8.68;;;;;;;1.94;62.80;100254.50;4987034;28;20572;-77
2022/10/12 00:28:42;;;;;;;20.58;8.60;;;;;;;1.95;62.43;100242.50;4984682;28;20065;-80
2022/10/12 00:31:16;;;;;;;20.75;9.77;;;;;;;1.85;62.83;100227.66;4993774;28;20052;-81
2022/10/12 00:33:42;;;;;;;26.42;9.40;;;;;;;1.95;62.66;100239.94;4987710;28;20049;-80
2022/10/12 00:36:24;;;;;;;22.33;9.75;;;;;;;1.90;62.74;100233.78;4985710;28;20116;-79
2022/10/12 00:38:53;;;;;;;23.90;11.45;;;;;;;1.97;62.98;100248.56;4987363;28;20046;-80
2022/10/12 00:41:22;;;;;;;27.02;10.85;;;;;;;1.89;62.96;100229.47;4970300;28;20129;-79
2022/10/12 00:43:49;;;;;;;27.98;10.88;;;;;;;1.83;63.09;100209.59;4987500;28;20053;-81
2022/10/12 00:46:40;;;;;;;23.20;10.90;;;;;;;2.02;62.83;100229.06;4977765;28;20053;-79
2022/10/12 00:49:17;;;;;;;26.30;10.60;;;;;;;2.01;63.06;100231.56;4992997;28;20060;-81
2022/10/12 00:51:50;;;;;;;21.52;10.15;;;;;;;1.93;62.92;100223.63;4988530;28;20049;-81
2022/10/12 00:54:22;;;;;;;19.88;9.77;;;;;;;1.78;63.21;100204.34;4992993;28;20560;-80
2022/10/12 00:56:52;;;;;;;28.20;11.73;;;;;;;2.00;63.64;100230.72;4982798;28;20042;-79
2022/10/12 00:59:27;;;;;;;26.25;10.88;;;;;;;2.00;63.09;100238.41;4970010;28;20053;-80
2022/10/12 01:01:54;;;;;;;22.38;9.70;;;;;;;1.83;63.13;100213.88;4981221;28;20042;-80
2022/10/12 01:04:21;;;;;;;25.27;10.18;;;;;;;1.95;63.05;100230.56;4969785;28;21022;-79
2022/10/12 01:06:47;;;;;;;30.35;11.43;;;;;;;1.79;62.72;100198.38;4985309;28;20379;-79
2022/10/12 01:09:14;;;;;;;32.42;12.48;;;;;;;1.98;63.21;100227.22;4986758;28;20050;-79
2022/10/12 01:11:40;;;;;;;25.95;12.10;;;;;;;1.84;62.69;100202.78;4985324;28;20981;-79
2022/10/12 01:14:06;;;;;;;33.40;11.55;;;;;;;1.96;63.36;100228.84;4986699;28;20046;-78
2022/10/12 01:16:43;;;;;;;30.33;14.85;;;;;;;1.94;62.94;100222.78;4986656;28;20526;-78
2022/10/12 01:19:39;;;;;;;27.30;12.85;;;;;;;1.95;63.44;100224.53;4986255;28;20099;-78
2022/10/12 01:22:14;;;;;;;25.50;12.70;;;;;;;1.72;63.09;100186.16;4972945;28;20042;-80
2022/10/12 01:24:52;;;;;;;29.65;14.95;;;;;;;1.65;63.29;100173.97;4995283;28;20438;-80
2022/10/12 01:27:33;;;;;;;31.58;13.25;;;;;;;1.92;63.65;100216.72;4992322;28;20133;-81
2022/10/12 01:30:10;;;;;;;32.47;11.95;;;;;;;1.82;62.99;100202.72;4990105;28;20344;-78
2022/10/12 01:33:03;;;;;;;21.17;11.93;;;;;;;1.93;63.83;100214.25;4983781;28;20065;-80
2022/10/12 01:35:47;;;;;;;23.58;11.82;;;;;;;1.93;63.31;100215.91;4988735;28;20149;-78
2022/10/12 01:38:28;;;;;;;30.40;12.27;;;;;;;1.90;63.40;100208.13;4989914;28;20046;-78
2022/10/12 01:40:59;;;;;;;31.55;13.25;;;;;;;1.84;63.11;100205.38;4988958;28;20201;-79
2022/10/12 01:43:35;;;;;;;31.40;14.85;;;;;;;1.80;63.59;100199.25;4988701;28;20042;-79
2022/10/12 01:46:11;;;;;;;36.00;12.80;;;;;;;1.84;63.46;100207.94;4988837;28;20061;-79
2022/10/12 01:48:39;;;;;;;25.63;13.18;;;;;;;1.79;63.41;100193.25;4992807;28;20399;-79
2022/10/12 01:51:07;;;;;;;29.40;13.43;;;;;;;1.64;63.47;100161.97;5004336;28;20417;-79
2022/10/12 01:54:27;;;;;;;28.67;12.70;;;;;;;1.93;63.64;100196.28;4988986;28;20050;-79
2022/10/12 01:56:58;;;;;;;24.83;12.27;;;;;;;1.87;63.62;100182.38;4976414;28;20141;-80
2022/10/12 02:00:03;;;;;;;25.30;12.32;;;;;;;1.94;63.85;100202.25;4978726;28;20050;-78
2022/10/12 02:02:46;;;;;;;29.65;14.38;;;;;;;1.84;63.27;100185.69;4989272;28;20521;-78
2022/10/12 02:05:21;;;;;;;31.38;13.27;;;;;;;1.91;63.59;100197.91;4988647;28;20371;-80
2022/10/12 02:07:57;;;;;;;38.50;16.55;;;;;;;1.87;63.65;100188.38;4987766;28;20615;-80
2022/10/12 02:10:29;;;;;;;34.83;15.98;;;;;;;1.70;63.66;100164.69;4989476;28;20085;-79
2022/10/12 02:13:00;;;;;;;37.13;16.30;;;;;;;1.87;64.01;100202.91;4989154;28;20038;-78
2022/10/12 02:15:29;;;;;;;37.30;16.63;;;;;;;1.76;63.79;100175.19;4989187;28;20081;-80
2022/10/12 02:17:57;;;;;;;35.53;15.18;;;;;;;1.87;64.08;100190.94;4988810;28;20042;-78
2022/10/12 02:20:26;;;;;;;33.83;14.20;;;;;;;1.60;64.04;100143.00;4989245;28;20121;-78
2022/10/12 02:23:13;;;;;;;34.78;14.07;;;;;;;1.88;64.23;100186.66;4988110;28;20069;-79
2022/10/12 02:25:40;;;;;;;39.45;15.40;;;;;;;1.87;63.89;100187.50;4987396;28;20047;-80
2022/10/12 02:28:10;;;;;;;41.35;15.93;;;;;;;1.93;64.01;100190.25;4983504;28;20042;-78
2022/10/12 02:30:52;;;;;;;36.83;16.48;;;;;;;1.92;63.69;100189.38;4987795;28;20042;-79
2022/10/12 02:33:28;;;;;;;32.13;14.48;;;;;;;1.88;64.04;100186.66;4971187;28;20038;-79
2022/10/12 02:36:15;;;;;;;34.75;16.00;;;;;;;1.86;64.11;100196.03;4987266;28;20054;-77
2022/10/12 02:39:00;;;;;;;32.40;15.38;;;;;;;1.84;63.88;100189.97;4987935;28;20046;-79
2022/10/12 02:41:35;;;;;;;36.05;16.20;;;;;;;1.80;64.22;100184.72;4989493;28;20030;-77
2022/10/12 02:44:07;;;;;;;41.65;15.07;;;;;;;1.83;64.02;100186.50;4989259;28;20050;-80
2022/10/12 02:46:37;;;;;;;38.35;15.95;;;;;;;1.82;64.18;100177.06;4987757;28;20046;-79
2022/10/12 02:49:05;;;;;;;49.55;15.30;;;;;;;1.82;63.77;100177.06;4995267;28;20046;-79
2022/10/12 02:51:32;;;;;;;35.05;14.95;;;;;;;1.87;64.12;100190.06;4996315;28;20069;-79
2022/10/12 02:53:59;;;;;;;31.95;14.40;;;;;;;1.79;63.71;100176.97;4994182;28;20054;-78
2022/10/12 02:56:25;;;;;;;37.50;15.10;;;;;;;1.71;64.16;100158.75;4967195;28;20046;-80
2022/10/12 02:58:51;;;;;;;31.30;15.18;;;;;;;1.74;64.29;100169.13;4987889;28;20057;-79
2022/10/12 03:01:17;;;;;;;35.38;16.00;;;;;;;1.72;63.97;100165.63;4987967;28;20074;-80
2022/10/12 03:03:44;;;;;;;33.38;14.85;;;;;;;1.14;64.09;100075.69;5000606;28;20053;-79
2022/10/12 03:06:10;;;;;;;38.80;14.48;;;;;;;1.61;64.00;100151.59;4991496;28;20034;-81
2022/10/12 03:08:37;;;;;;;34.95;15.30;;;;;;;1.83;63.98;100196.78;5002871;28;20065;-80
2022/10/12 03:11:10;;;;;;;31.33;14.63;;;;;;;1.79;64.25;100179.53;4992985;28;20050;-79
2022/10/12 03:13:36;;;;;;;27.73;14.57;;;;;;;1.72;63.89;100178.47;4986427;28;20049;-79
2022/10/12 03:16:02;;;;;;;33.83;14.77;;;;;;;1.85;64.05;100191.72;4975293;28;20042;-79
2022/10/12 03:18:28;;;;;;;36.75;15.10;;;;;;;1.74;64.13;100181.94;4985385;28;20046;-81
2022/10/12 03:20:55;;;;;;;33.67;15.27;;;;;;;1.53;64.11;100145.31;4987491;28;20034;-79
2022/10/12 03:23:24;;;;;;;32.33;15.00;;;;;;;1.74;64.07;100188.78;4970352;28;20045;-80
2022/10/12 03:25:50;;;;;;;24.73;13.25;;;;;;;1.65;64.10;100186.78;4986520;28;20046;-79
2022/10/12 03:28:16;;;;;;;30.02;14.23;;;;;;;1.57;64.11;100160.84;4986303;28;20046;-79
2022/10/12 03:30:44;;;;;;;31.00;14.75;;;;;;;1.57;63.92;100176.25;4987915;28;20155;-80
2022/10/12 03:33:11;;;;;;;33.58;15.75;;;;;;;1.57;64.01;100173.69;4988263;28;20042;-78
2022/10/12 03:35:37;;;;;;;27.92;15.98;;;;;;;1.58;64.23;100192.53;4986586;28;20046;-79
2022/10/12 03:38:03;;;;;;;33.95;16.35;;;;;;;1.44;64.08;100176.66;4987197;28;20038;-80
2022/10/12 03:40:30;;;;;;;37.30;17.20;;;;;;;1.35;64.43;100156.72;4954537;28;20050;-78
2022/10/12 03:42:56;;;;;;;31.25;15.20;;;;;;;1.60;64.65;100188.31;4986553;28;20061;-80
2022/10/12 03:45:22;;;;;;;35.80;15.05;;;;;;;1.63;65.24;100175.59;4986782;28;20050;-81
2022/10/12 03:47:48;;;;;;;32.92;15.50;;;;;;;1.35;64.52;100124.22;4986973;28;20506;-80
2022/10/12 03:50:14;;;;;;;31.10;15.10;;;;;;;1.73;64.50;100189.63;4984684;28;20054;-80
2022/10/12 03:52:40;;;;;;;37.55;15.90;;;;;;;1.76;64.73;100193.16;4988451;28;20042;-80
2022/10/12 03:55:07;;;;;;;30.10;14.23;;;;;;;1.75;64.76;100193.97;4987948;28;20049;-79
2022/10/12 03:57:33;;;;;;;37.28;15.07;;;;;;;1.78;64.87;100190.63;4986607;28;20042;-80
2022/10/12 03:59:59;;;;;;;32.55;14.82;;;;;;;1.71;64.86;100186.97;4970442;28;20030;-81
2022/10/12 04:02:25;;;;;;;30.35;14.32;;;;;;;1.69;65.05;100175.78;4987010;28;20034;-81
2022/10/12 04:04:51;;;;;;;30.77;14.50;;;;;;;1.78;64.51;100176.09;4988227;28;20038;-79
2022/10/12 04:07:17;;;;;;;31.80;13.55;;;;;;;1.88;64.94;100176.38;4987534;28;20153;-82
2022/10/12 04:09:43;;;;;;;33.85;14.77;;;;;;;2.01;64.62;100188.81;4970333;28;20043;-80
2022/10/12 04:12:09;;;;;;;33.67;14.88;;;;;;;2.08;64.63;100177.94;4985379;28;20132;-80
2022/10/12 04:14:35;;;;;;;27.17;13.10;;;;;;;2.31;64.92;100194.84;4969656;28;20038;-79
2022/10/12 04:17:03;;;;;;;31.67;15.18;;;;;;;2.68;64.33;100195.97;4983767;28;20046;-81
2022/10/12 04:19:30;;;;;;;31.75;14.07;;;;;;;2.86;64.26;100134.84;4966222;28;20125;-80
2022/10/12 04:21:56;;;;;;;24.05;12.65;;;;;;;3.75;64.17;100157.69;4987200;28;20072;-78
2022/10/12 04:24:23;;;;;;;32.45;13.63;;;;;;;4.73;63.27;100162.44;4980931;28;20053;-80
2022/10/12 04:26:54;;;;;;;30.27;14.35;;;;;;;5.73;63.00;100176.38;4947370;28;20042;-79
2022/10/12 04:29:23;;;;;;;28.38;13.07;;;;;;;6.31;61.96;100119.56;4986883;28;20053;-80
2022/10/12 04:31:51;;;;;;;;;;;;;;;7.57;60.41;100170.16;4989170;28;20426;-79
2022/10/12 04:34:18;;;;;;;22.73;12.98;;;;;;;8.46;59.32;100170.81;4991371;28;19940;-81
2022/10/12 04:36:44;;;;;;;31.98;13.85;;;;;;;9.27;58.23;100152.13;4988297;28;20545;-81
2022/10/12 04:39:12;;;;;;;27.77;14.32;;;;;;;10.04;56.74;100147.84;4968819;28;20501;-83
2022/10/12 04:41:38;;;;;;;22.30;12.98;;;;;;;10.63;55.31;100106.09;4993965;28;20526;-80
2022/10/12 04:44:06;;;;;;;27.02;13.93;;;;;;;11.68;53.64;100122.81;4991693;28;20057;-81
2022/10/12 04:46:32;;;;;;;23.58;13.10;;;;;;;12.58;51.70;100125.41;4986102;28;20042;-79
2022/10/12 04:48:59;;;;;;;28.63;13.85;;;;;;;13.51;49.47;100142.47;4974579;28;20049;-80
2022/10/12 04:51:25;;;;;;;26.52;14.02;;;;;;;14.20;47.80;100131.72;4987025;28;20046;-80
2022/10/12 04:53:51;;;;;;;28.50;15.65;;;;;;;14.62;46.05;100102.09;4969309;28;20057;-79
2022/10/12 04:56:18;;;;;;;27.55;14.88;;;;;;;15.27;44.09;100141.78;4983647;28;20049;-80
2022/10/12 04:58:44;;;;;;;25.27;13.63;;;;;;;15.92;42.62;100111.38;4972956;28;20038;-81
2022/10/12 05:01:10;;;;;;;26.92;14.93;;;;;;;16.95;41.34;100133.97;4989917;28;20045;-80
2022/10/12 05:03:36;;;;;;;24.65;14.82;;;;;;;17.55;38.91;100122.44;4989799;28;20050;-80
2022/10/12 05:06:02;;;;;;;27.67;14.68;;;;;;;17.88;38.02;100106.44;4990362;28;20047;-78
2022/10/12 05:08:28;;;;;;;31.33;14.93;;;;;;;18.38;37.44;100110.88;4992177;28;20038;-80
2022/10/12 05:10:57;;;;;;;26.23;14.65;;;;;;;19.15;35.87;100112.41;4990441;28;20132;-80
2022/10/12 05:13:23;;;;;;;23.73;14.82;;;;;;;19.78;34.65;100122.16;4991196;28;20517;-79
2022/10/12 05:15:49;;;;;;;25.42;15.50;;;;;;;19.91;33.68;100085.56;5003686;28;20042;-80
2022/10/12 05:18:15;;;;;;;24.92;14.68;;;;;;;20.98;32.72;100109.88;4966021;28;20050;-78
2022/10/12 05:20:41;;;;;;;30.33;15.25;;;;;;;21.93;31.35;100103.50;4990355;28;20042;-79
2022/10/12 05:23:10;;;;;;;26.55;16.55;;;;;;;22.68;29.87;100105.78;4993321;28;20073;-80
2022/10/12 05:25:37;;;;;;;25.52;15.35;;;;;;;23.36;29.54;100087.03;4992479;28;20582;-80
2022/10/12 05:28:03;;;;;;;21.58;15.18;;;;;;;24.29;27.98;100079.75;4990231;28;20053;-78
2022/10/12 05:30:30;;;;;;;24.70;14.82;;;;;;;25.30;26.49;100092.00;4992857;28;20058;-80
2022/10/12 05:32:55;;;;;;;23.20;14.32;;;;;;;26.03;25.39;100081.81;4993583;28;20050;-79
2022/10/12 05:35:22;;;;;;;26.50;15.07;;;;;;;26.75;24.74;100086.56;4990300;28;20074;-81
2022/10/12 05:37:48;;;;;;;23.45;14.35;;;;;;;26.59;24.06;100067.31;4993062;28;20449;-81
2022/10/12 05:40:15;;;;;;;19.95;13.90;;;;;;;26.81;24.46;100084.47;4998621;28;20181;-80
2022/10/12 05:42:43;;;;;;;23.50;13.60;;;;;;;26.59;24.03;100075.31;4998642;28;20046;-82
2022/10/12 05:45:10;;;;;;;20.95;13.45;;;;;;;26.29;24.15;100065.84;5014466;28;20039;-81
2022/10/12 05:47:36;;;;;;;22.02;14.02;;;;;;;27.28;23.51;100085.41;5006074;28;20050;-79
2022/10/12 05:50:03;;;;;;;22.45;13.45;;;;;;;28.51;22.83;100076.94;4993382;28;20548;-80
2022/10/12 05:55:23;;;;;;;21.92;12.95;;;;;;;30.12;21.22;100070.88;4987261;28;20746;-79
2022/10/12 05:57:49;;;;;;;19.60;12.65;;;;;;;30.80;19.81;100047.94;4991536;28;20046;-79
2022/10/12 06:00:16;;;;;;;18.98;12.57;;;;;;;31.59;19.12;100038.03;4991345;28;20041;-79
2022/10/12 06:02:42;;;;;;;20.35;12.75;;;;;;;32.33;18.88;100048.19;4974900;28;20200;-81
2022/10/12 06:05:11;;;;;;;17.80;11.45;;;;;;;32.90;18.27;100039.94;5003084;28;20074;-80
2022/10/12 06:07:37;;;;;;;20.42;12.07;;;;;;;33.68;17.48;100053.72;4972764;28;20058;-78
2022/10/12 06:10:05;;;;;;;16.38;11.27;;;;;;;34.24;16.95;100056.94;4992228;28;20053;-80
2022/10/12 06:12:31;;;;;;;13.43;11.10;;;;;;;34.61;16.68;100033.31;4989751;28;20544;-82
2022/10/12 06:15:27;;;;;;;17.80;10.65;;;;;;;34.66;15.68;99955.31;4991931;28;20046;-79
2022/10/12 06:17:57;;;;;;;17.90;11.07;;;;;;;36.01;15.67;100040.59;4990265;28;20049;-79
2022/10/12 06:20:23;;;;;;;12.48;9.70;;;;;;;36.45;14.75;100037.38;4974406;28;20046;-80
2022/10/12 06:22:49;;;;;;;16.80;10.30;;;;;;;36.90;14.49;100048.47;4987934;28;20039;-79
2022/10/12 06:25:34;;;;;;;15.20;9.80;;;;;;;37.00;14.14;100007.59;4975706;28;20144;-82
2022/10/12 06:28:00;;;;;;;14.57;9.80;;;;;;;37.29;13.80;100016.00;4991194;28;20092;-81
2022/10/12 06:30:32;;;;;;;19.90;10.05;;;;;;;37.64;13.53;100033.47;4973175;28;20104;-80
2022/10/12 06:33:02;;;;;;;13.20;8.88;;;;;;;37.87;13.14;100042.56;4975556;28;20047;-79
2022/10/12 06:35:31;;;;;;;12.52;8.55;;;;;;;37.82;12.99;100052.13;4972797;28;20421;-80
2022/10/12 06:38:06;;;;;;;14.75;9.35;;;;;;;37.78;13.38;100045.38;4991502;28;20046;-80
2022/10/12 06:40:32;;;;;;;14.52;9.38;;;;;;;37.79;13.12;100016.34;4990930;28;20130;-80
2022/10/12 06:43:01;;;;;;;17.42;9.30;;;;;;;38.38;12.78;100034.53;4991296;28;20514;-81
2022/10/12 06:45:29;;;;;;;16.42;9.73;;;;;;;38.29;12.55;100035.63;4981670;28;20043;-80
2022/10/12 06:48:23;;;;;;;13.50;9.57;;;;;;;38.90;12.06;100034.47;4974640;28;20034;-83
2022/10/12 06:50:52;;;;;;;12.15;9.52;;;;;;;39.34;11.67;100029.84;4971894;28;20405;-79
2022/10/12 06:53:21;;;;;;;11.90;9.15;;;;;;;39.60;11.77;99993.00;4973854;28;20537;-82
2022/10/12 06:55:56;;;;;;;16.37;8.07;;;;;;;40.32;10.97;100009.94;4989548;28;20046;-80
2022/10/12 06:58:23;;;;;;;12.95;9.32;;;;;;;40.95;11.02;100010.69;4992428;28;20599;-80
2022/10/12 07:04:24;;;;;;;14.88;9.25;;;;;;;40.88;10.41;99920.72;4987828;28;20426;-78
2022/10/12 07:06:50;;;;;;;15.73;8.50;;;;;;;40.96;10.52;99966.88;4989788;28;20038;-78
2022/10/12 07:09:22;;;;;;;13.00;7.97;;;;;;;40.95;10.61;99969.78;4992538;28;20113;-79
2022/10/12 07:11:49;;;;;;;16.13;8.60;;;;;;;41.14;10.22;99964.59;4973266;28;20498;-81
2022/10/12 07:14:17;;;;;;;16.55;8.68;;;;;;;41.46;9.68;100005.66;4972653;28;20049;-81
2022/10/12 07:16:43;;;;;;;17.20;8.50;;;;;;;41.57;10.16;99979.66;4988077;28;20034;-80
2022/10/12 07:19:12;;;;;;;15.52;8.45;;;;;;;41.98;9.67;99998.44;4984661;28;20042;-78
2022/10/12 07:21:39;;;;;;;15.30;8.13;;;;;;;41.88;9.31;100011.69;4990749;28;20039;-80
2022/10/12 07:24:05;;;;;;;15.52;8.40;;;;;;;42.26;9.33;100008.19;4994747;28;20104;-79
2022/10/12 07:26:34;;;;;;;20.13;8.68;;;;;;;42.39;9.27;100001.00;4974953;28;20245;-79
2022/10/12 07:29:02;;;;;;;14.80;8.57;;;;;;;42.03;9.21;100016.09;4987979;28;20084;-80
2022/10/12 07:31:31;;;;;;;11.75;8.35;;;;;;;41.97;8.64;100020.50;4979759;28;20038;-82
2022/10/12 07:33:57;;;;;;;19.25;8.68;;;;;;;41.99;8.50;100021.97;4990467;28;20046;-80
2022/10/12 07:36:23;;;;;;;16.65;9.13;;;;;;;41.46;8.53;100001.06;4972743;28;20081;-81
2022/10/12 07:38:49;;;;;;;13.05;8.02;;;;;;;41.37;9.28;100024.16;4990891;28;20046;-81
2022/10/12 07:41:32;;;;;;;;;;;;;;;;;;;;;
2022/10/12 07:44:27;;;;;;;14.77;7.78;;;;;;;41.45;9.04;99987.63;5003645;28;20808;-79
2022/10/12 07:46:56;;;;;;;14.77;8.02;;;;;;;41.87;8.94;99990.88;4962905;28;20571;-80
2022/10/12 07:49:22;;;;;;;13.43;7.82;;;;;;;42.81;8.52;100003.31;4971406;28;21424;-80
2022/10/12 07:51:55;;;;;;;13.80;7.50;;;;;;;43.12;7.95;99953.16;4988818;28;20500;-79
2022/10/12 07:54:22;;;;;;;15.35;7.68;;;;;;;44.03;8.19;100020.25;4978272;28;20061;-79
2022/10/12 07:56:53;;;;;;;13.50;8.65;;;;;;;44.60;7.70;100017.19;4996755;28;20076;-79
2022/10/12 07:59:22;;;;;;;21.50;8.20;;;;;;;44.76;7.39;100010.22;4997141;28;20076;-81
2022/10/12 08:02:24;;;;;;;14.80;8.48;;;;;;;44.15;7.86;99936.19;4971398;28;20077;-81
2022/10/12 08:05:58;;;;;;;10.68;7.78;;;;;;;44.21;7.50;100016.69;4956329;28;20051;-81
2022/10/12 08:08:53;;;;;;;11.02;7.10;;;;;;;44.22;7.70;99963.53;4942991;28;20058;-80
2022/10/12 08:11:20;;;;;;;13.45;7.65;;;;;;;44.55;7.12;99959.47;4959355;28;20039;-80
2022/10/12 08:13:54;;;;;;;12.70;7.47;;;;;;;45.29;7.13;100002.19;4942029;28;20055;-80
2022/10/12 08:17:04;;;;;;;;;;;;;;;;;;;;;
2022/10/12 08:19:38;;;;;;;13.35;6.75;;;;;;;45.27;7.15;99939.28;4883280;29;20045;-80
2022/10/12 08:22:06;;;;;;;11.48;6.78;;;;;;;46.00;6.80;99982.03;4930317;28;20057;-82
2022/10/12 08:24:37;;;;;;;14.85;7.35;;;;;;;46.10;6.18;99949.25;4961713;28;20051;-82
2022/10/12 08:27:09;;;;;;;14.18;7.30;;;;;;;45.92;6.58;99933.75;4973032;28;20554;-79
2022/10/12 08:29:38;;;;;;;9.32;6.70;;;;;;;45.33;6.31;99915.53;4941129;28;20051;-81
2022/10/12 08:32:13;;;;;;;16.52;7.32;;;;;;;45.92;6.24;99996.13;4938335;28;20042;-80
2022/10/12 08:34:40;;;;;;;13.30;6.88;;;;;;;45.27;6.56;99972.25;4952198;28;20050;-81
2022/10/12 08:37:11;;;;;;;8.27;5.47;;;;;;;45.13;6.60;99995.50;5012150;28;20022;-80
2022/10/12 08:40:12;;;;;;;10.85;6.10;;;;;;;45.17;6.32;99954.66;5003729;28;20053;-79
2022/10/12 08:43:03;;;;;;;12.68;7.15;;;;;;;45.26;6.31;99956.84;5000208;28;20069;-78
2022/10/12 08:45:37;;;;;;;10.85;6.55;;;;;;;45.60;6.16;99989.13;4999637;28;20045;-80
2022/10/12 08:48:17;;;;;;;11.90;6.85;;;;;;;45.20;6.62;99981.66;5023409;28;20042;-79
2022/10/12 08:51:01;;;;;;;6.63;5.10;;;;;;;44.08;7.07;99966.44;5028077;28;20042;-80
2022/10/12 08:53:53;;;;;;;14.07;6.40;;;;;;;43.87;6.88;99977.88;5021054;28;20042;-79
2022/10/12 08:56:21;;;;;;;13.32;6.40;;;;;;;44.31;6.78;99986.78;5025650;28;20066;-80
2022/10/12 08:58:49;;;;;;;10.45;5.70;;;;;;;44.58;6.52;99978.19;5008431;28;20199;-80
2022/10/12 09:01:37;;;;;;;8.30;5.55;;;;;;;43.89;6.99;99984.81;5008647;28;20038;-80
2022/10/12 09:04:24;;;;;;;7.03;5.30;;;;;;;44.04;7.14;99980.84;4991381;28;20437;-81
2022/10/12 09:07:00;;;;;;;8.13;4.53;;;;;;;43.47;7.24;99977.25;5003367;28;20157;-81
2022/10/12 09:09:53;;;;;;;9.93;5.05;;;;;;;41.88;7.54;99970.72;5006163;28;20042;-81
2022/10/12 09:12:38;;;;;;;10.65;5.20;;;;;;;40.41;8.48;99969.72;5010615;28;20417;-82
2022/10/12 09:15:27;;;;;;;10.70;3.95;;;;;;;38.13;9.50;99969.63;4981070;28;20053;-81
2022/10/12 09:18:03;;;;;;;9.20;4.80;;;;;;;36.13;10.53;99981.50;5009329;28;20041;-81
2022/10/12 09:20:34;;;;;;;9.30;4.45;;;;;;;34.77;10.91;99916.31;5009312;28;20449;-80
2022/10/12 09:23:16;;;;;;;6.40;3.50;;;;;;;34.62;11.20;99935.91;5002594;28;20046;-79
2022/10/12 09:25:49;;;;;;;9.65;4.20;;;;;;;33.41;11.48;99832.63;4997160;28;20021;-80
2022/10/12 09:28:32;;;;;;;7.20;3.40;;;;;;;33.53;12.13;99972.59;5003647;28;20041;-81
2022/10/12 09:31:23;;;;;;;6.53;3.13;;;;;;;32.68;12.75;99973.84;5005524;28;20042;-81
2022/10/12 09:33:58;;;;;;;6.95;2.83;;;;;;;32.34;12.85;99850.72;5008432;28;20042;-80
2022/10/12 09:36:27;;;;;;;6.57;3.17;;;;;;;32.79;12.58;99821.94;5004666;28;20138;-79
2022/10/12 09:38:57;;;;;;;6.97;2.28;;;;;;;34.28;11.98;99909.81;5006584;28;20520;-79
2022/10/12 09:41:35;;;;;;;5.43;2.10;;;;;;;35.12;11.34;99944.88;5009688;28;20038;-81
2022/10/12 09:44:04;;;;;;;6.20;2.45;;;;;;;35.72;11.61;99952.72;5020383;28;20048;-80
2022/10/12 09:46:53;;;;;;;8.88;3.10;;;;;;;35.78;10.75;99878.94;4998812;28;20073;-81
2022/10/12 09:49:46;;;;;;;3.00;1.90;;;;;;;35.54;10.59;99925.91;5013465;28;20038;-80
2022/10/12 09:52:29;;;;;;;3.85;1.80;;;;;;;35.23;11.27;99964.47;5025339;28;20042;-81
2022/10/12 09:55:06;;;;;;;4.80;2.03;;;;;;;33.89;11.66;99943.59;5015229;28;20079;-83
2022/10/12 09:57:36;;;;;;;3.28;1.95;;;;;;;32.35;12.54;99960.91;5010117;28;20041;-83
2022/10/12 10:00:22;;;;;;;4.93;2.00;;;;;;;30.70;13.35;99905.63;4993271;28;20050;-81
2022/10/12 10:03:00;;;;;;;5.50;2.17;;;;;;;30.01;14.09;99977.09;5009958;28;20038;-83
2022/10/12 10:06:03;;;;;;;3.67;1.70;;;;;;;28.68;14.97;99922.16;5024659;28;20092;-81
2022/10/12 10:08:39;;;;;;;4.28;1.88;;;;;;;28.12;15.71;99972.19;5022553;28;20521;-80
2022/10/12 10:11:14;;;;;;;5.90;1.92;;;;;;;27.64;16.35;99982.09;5008668;28;20500;-81
2022/10/12 10:14:08;;;;;;;6.78;2.47;;;;;;;27.11;16.58;99963.00;5008253;28;20572;-82
2022/10/12 10:16:47;;;;;;;7.57;2.40;;;;;;;26.84;17.23;99990.78;5011769;28;20111;-81
2022/10/12 10:19:20;;;;;;;5.90;2.67;;;;;;;26.43;17.52;99991.03;5015018;28;20523;-80
2022/10/12 10:21:53;;;;;;;6.00;2.80;;;;;;;25.37;18.43;99967.31;4992197;28;20045;-79
2022/10/12 10:24:31;;;;;;;6.13;2.55;;;;;;;24.08;19.06;99938.41;5008408;28;20053;-80
2022/10/12 10:27:00;;;;;;;5.15;2.40;;;;;;;23.77;20.05;99994.25;4992832;28;20060;-82
2022/10/12 10:29:35;;;;;;;4.57;2.50;;;;;;;23.44;20.77;100005.13;4987190;28;20108;-78
2022/10/12 10:32:25;;;;;;;7.30;2.63;;;;;;;23.32;21.18;100006.69;5008880;28;20034;-80
2022/10/12 10:35:14;;;;;;;9.23;2.70;;;;;;;23.20;21.21;100004.75;5004458;28;20061;-79
2022/10/12 10:37:54;;;;;;;8.20;3.70;;;;;;;23.01;21.51;100016.44;5006524;28;20116;-81
2022/10/12 10:40:29;;;;;;;12.02;3.50;;;;;;;22.89;21.78;100018.00;5020997;28;20418;-78
2022/10/12 10:43:16;;;;;;;8.23;3.30;;;;;;;22.73;22.15;100011.84;4987342;28;20103;-80
2022/10/12 10:45:49;;;;;;;8.88;3.78;;;;;;;22.56;22.22;100018.94;5008412;28;20037;-81
2022/10/12 10:48:19;;;;;;;8.15;3.97;;;;;;;21.60;22.92;100002.78;5011452;28;20050;-81
2022/10/12 10:51:04;;;;;;;7.72;4.47;;;;;;;20.40;24.10;99920.50;5011160;28;20030;-81
2022/10/12 10:53:46;;;;;;;7.85;4.28;;;;;;;20.82;24.54;100024.28;4993020;28;20148;-81
2022/10/12 10:56:29;;;;;;;7.70;4.03;;;;;;;20.87;24.68;100014.31;5009194;28;20509;-81
2022/10/12 10:58:58;;;;;;;5.35;3.30;;;;;;;20.78;24.56;100005.03;5012402;28;20505;-78
2022/10/12 11:01:47;;;;;;;6.53;3.55;;;;;;;20.85;24.88;100013.56;5012902;28;20395;-79
2022/10/12 11:04:28;;;;;;;8.40;3.60;;;;;;;20.70;24.95;100015.13;5013862;28;20037;-80
2022/10/12 11:07:00;;;;;;;6.70;3.60;;;;;;;20.52;25.03;100003.63;4993629;28;20509;-81
2022/10/12 11:09:39;;;;;;;7.65;3.85;;;;;;;20.26;25.45;99997.75;5006787;28;20668;-80
2022/10/12 11:12:13;;;;;;;10.40;3.60;;;;;;;20.40;25.77;100026.19;5023491;28;20038;-80
2022/10/12 11:14:45;;;;;;;6.38;2.83;;;;;;;20.13;25.79;100008.03;4991854;28;20057;-80
2022/10/12 11:17:33;;;;;;;8.98;3.13;;;;;;;20.19;25.95;100028.03;5007584;28;20064;-80
2022/10/12 11:19:59;;;;;;;8.35;2.97;;;;;;;20.07;26.05;100021.53;5006990;28;20505;-79
2022/10/12 11:22:44;;;;;;;5.72;3.10;;;;;;;19.63;26.80;99991.72;5006959;28;20045;-78
2022/10/12 11:25:19;;;;;;;7.82;2.80;;;;;;;19.77;26.89;100028.03;4990653;28;20367;-80
2022/10/12 11:27:53;;;;;;;6.13;2.72;;;;;;;19.63;27.21;100009.31;5006003;28;20056;-81
2022/10/12 11:30:35;;;;;;;9.95;4.53;;;;;;;19.84;26.96;100024.22;4991502;28;20414;-81
2022/10/12 11:33:26;;;;;;;9.75;4.60;;;;;;;19.68;27.45;100025.81;5003553;28;20045;-80
2022/10/12 11:35:56;;;;;;;10.10;4.25;;;;;;;19.41;27.77;100033.97;5006180;28;20058;-80
2022/10/12 11:38:59;;;;;;;10.02;3.53;;;;;;;19.23;28.43;100044.38;4987242;28;20421;-81
2022/10/12 11:41:47;;;;;;;9.07;3.53;;;;;;;18.87;28.25;100010.63;4987623;28;20050;-82
2022/10/12 11:44:28;;;;;;;8.15;4.15;;;;;;;19.07;28.75;100045.94;5009292;28;20037;-80
2022/10/12 11:47:00;;;;;;;11.30;4.68;;;;;;;18.93;29.11;100036.75;4989833;28;20045;-80
2022/10/12 11:49:44;;;;;;;7.43;4.40;;;;;;;18.89;28.82;100055.41;4990782;28;21090;-80
2022/10/12 11:52:24;;;;;;;7.95;4.00;;;;;;;18.58;29.28;100038.13;4991636;28;20125;-82
2022/10/12 11:55:20;;;;;;;9.23;3.58;;;;;;;18.47;29.72;100057.84;5012772;28;20042;-80
2022/10/12 11:58:23;;;;;;;10.18;4.15;;;;;;;18.18;29.79;100025.53;4987236;28;20057;-81
2022/10/12 12:01:28;;;;;;;10.30;3.97;;;;;;;18.01;30.32;100036.69;5027275;28;20042;-81